Terminal Aerodrome Forecast
Issued by NWS

Home | Current Version | Previous Version | Graphics & Text | Print | Product List | Glossary On
Versions: 1 2 3 4 5 6 7 8 9 10 11 12 13
674
FTUS45 KGGW 192325
TAFSDY
TAF
KSDY 192325Z 2000/2024 VRB05KT P6SM BKN060
     FM200300 VRB03KT 1 1/2SM BR SCT003 OVC015
     FM200600 VRB03KT 2SM BR SCT003 OVC020
     FM201200 24007KT 4SM BR BKN020 BKN021
     FM201500 25009KT 6SM BR SCT010=

USA.gov is the U.S. government's official web portal to all federal, state and local government web resources and services.